sim
Sign-in with your pilot id or email,
or register
Callsign
Passwort

Schedule Details

Flight Number: EWG210 (2)
Departure: Munich Airport (EDDM) at 08:50
Arrival: Punta Cana International Airport (MDPC) at 19:35
Route: Eurowings Passenger Schedule. Enter filed route here before submitting Pirep.

Weather Information
Getting current METAR information for EDDM 261850Z 24019KT 9999 -RA SCT023 BKN033 07/04 Q1001 NOSIG
Getting current METAR information for MDPC 261900Z 07012KT 9999 FEW020CB FEW025 31/24 Q1013 CB/SW

Schedule Frequency

Route Map